This is the latest recevied weather packets stored in our database for station/object KG7MRB. If no packets are shown the sender has not sent any weather packets the latest 10 day(s).
| Time | Temp. | Humidity | Pressure | Rain* | Wind** | Luminosity | Snow |
|---|---|---|---|---|---|---|---|
| 1778015269 | 21.11° C | 68% | 1032.8 hPa | 0 mm | - | 668 W/m² | - |
| 1778014967 | 20.56° C | 68% | 1032.9 hPa | 0 mm | - | 673 W/m² | - |
| 1778014664 | 20.56° C | 68% | 1033.1 hPa | 0 mm | - | 678 W/m² | - |
| 1778014362 | 20.56° C | 69% | 1032.9 hPa | 0 mm | - | 676 W/m² | - |
| 1778014058 | 21.11° C | 68% | 1033 hPa | 0 mm | - | 679 W/m² | - |
| 1778013756 | 20.56° C | 69% | 1032.9 hPa | 0 mm | - | 683 W/m² | - |
| 1778013453 | 20° C | 72% | 1033.1 hPa | 0 mm | - | 683 W/m² | - |
| 1778013150 | 20° C | 69% | 1033.1 hPa | 0 mm | - | 690 W/m² | - |
| 1778012846 | 19.44° C | 73% | 1033 hPa | 0 mm | - | 689 W/m² | - |
| 1778012542 | 20° C | 70% | 1033.2 hPa | 0 mm | - | 691 W/m² | - |
| 1778012239 | 20° C | 71% | 1033.1 hPa | 0 mm | - | 692 W/m² | - |
| 1778011937 | 20° C | 70% | 1033.2 hPa | 0 mm | - | 696 W/m² | - |
| 1778011635 | 20° C | 71% | 1033.3 hPa | 0 mm | - | 694 W/m² | - |
| 1778011331 | 19.44° C | 71% | 1033.2 hPa | 0 mm | - | 689 W/m² | - |
| 1778011027 | 20° C | 71% | 1033.1 hPa | 0 mm | - | 689 W/m² | - |
| 1778010724 | 20° C | 70% | 1033.2 hPa | 0 mm | - | 691 W/m² | - |
| 1778010422 | 19.44° C | 71% | 1033 hPa | 0 mm | - | 688 W/m² | - |
| 1778010118 | 20° C | 71% | 1033.4 hPa | 0 mm | - | 680 W/m² | - |
| 1778009814 | 19.44° C | 71% | 1033 hPa | 0 mm | - | 682 W/m² | - |
| 1778009511 | 20.56° C | 69% | 1033.2 hPa | 0 mm | - | 685 W/m² | - |
| 1778009210 | 20° C | 69% | 1033.1 hPa | 0 mm | - | 682 W/m² | - |
| 1778008907 | 19.44° C | 71% | 1033.2 hPa | 0 mm | - | 674 W/m² | - |
| 1778008605 | 18.89° C | 73% | 1032.9 hPa | 0 mm | - | 672 W/m² | - |
| 1778008303 | 18.89° C | 73% | 1033 hPa | 0 mm | - | 668 W/m² | - |
| 1778007999 | 18.89° C | 73% | 1033.3 hPa | 0 mm | - | 663 W/m² | - |
* Rain latest hour (hover to see other rain measurements)
** Current wind speed in m/s (hover to see current wind gust speed)